createdAt,value
2024-04-25T00:00:23.518Z,159.98
2024-04-25T00:01:23.590Z,159.55
2024-04-25T00:02:23.719Z,158.28
2024-04-25T00:03:23.825Z,161.20
2024-04-25T00:04:23.780Z,160.85
2024-04-25T00:05:23.818Z,160.93
2024-04-25T00:06:23.874Z,160.52
2024-04-25T00:07:23.918Z,159.47
2024-04-25T00:08:24.022Z,158.30
2024-04-25T00:09:24.041Z,159.68
2024-04-25T00:10:24.112Z,159.58
2024-04-25T00:11:24.239Z,158.74
2024-04-25T00:12:24.214Z,159.49
2024-04-25T00:13:24.258Z,160.93
2024-04-25T00:14:24.342Z,159.74
2024-04-25T00:15:24.360Z,161.82
2024-04-25T00:16:24.440Z,161.41
2024-04-25T00:17:24.453Z,161.81
2024-04-25T00:18:24.540Z,159.89
2024-04-25T00:19:24.575Z,160.75
2024-04-25T00:20:24.736Z,160.54
2024-04-25T00:21:24.673Z,162.32
2024-04-25T00:22:24.783Z,159.44
2024-04-25T00:23:24.843Z,160.87
2024-04-25T00:24:24.835Z,159.57
2024-04-25T00:25:24.920Z,159.60
2024-04-25T00:26:25.006Z,161.30
2024-04-25T00:27:25.028Z,160.05
2024-04-25T00:28:25.078Z,159.09
2024-04-25T00:29:25.181Z,158.82
2024-04-25T00:30:25.194Z,159.06
2024-04-25T00:31:25.274Z,160.43
2024-04-25T00:32:25.433Z,160.75
2024-04-25T00:33:25.461Z,159.92
2024-04-25T00:34:25.428Z,158.61
2024-04-25T00:35:25.544Z,159.74
2024-04-25T00:36:25.540Z,159.03
2024-04-25T00:37:25.624Z,157.75
2024-04-25T00:38:25.679Z,160.80
2024-04-25T00:39:25.644Z,160.85
2024-04-25T00:40:25.669Z,160.82
2024-04-25T00:41:25.684Z,161.36
2024-04-25T00:42:25.649Z,160.90
2024-04-25T00:43:25.676Z,158.77
2024-04-25T00:44:25.684Z,160.94
2024-04-25T00:45:25.704Z,159.22
2024-04-25T00:46:25.662Z,162.03
2024-04-25T00:47:25.734Z,161.35
2024-04-25T00:48:25.817Z,160.23
2024-04-25T00:49:25.712Z,161.12
2024-04-25T00:50:25.785Z,158.54
2024-04-25T00:51:25.784Z,160.47
2024-04-25T00:52:25.820Z,159.78
2024-04-25T00:53:25.882Z,161.54
2024-04-25T00:54:25.926Z,157.81
2024-04-25T00:55:25.972Z,159.98
2024-04-25T00:56:26.039Z,159.00
2024-04-25T00:57:26.079Z,159.69
2024-04-25T00:58:26.138Z,160.91
2024-04-25T00:59:26.261Z,159.09
2024-04-25T01:00:26.276Z,161.72
2024-04-25T01:01:26.311Z,159.52
2024-04-25T01:02:26.429Z,160.82
2024-04-25T01:03:26.433Z,159.70
2024-04-25T01:04:26.568Z,161.20
2024-04-25T01:05:26.526Z,160.89
2024-04-25T01:06:26.548Z,161.98
2024-04-25T01:07:26.588Z,162.53
2024-04-25T01:08:26.689Z,161.58
2024-04-25T01:09:26.735Z,160.39
2024-04-25T01:10:26.740Z,162.33
2024-04-25T01:11:26.875Z,161.81
2024-04-25T01:12:26.857Z,160.32
2024-04-25T01:13:26.880Z,162.23
2024-04-25T01:14:26.958Z,161.37
2024-04-25T01:15:26.970Z,161.89
2024-04-25T01:16:27.055Z,160.75
2024-04-25T01:17:27.193Z,160.69
2024-04-25T01:18:27.166Z,161.61
2024-04-25T01:19:27.180Z,161.15
2024-04-25T01:20:27.312Z,159.18
2024-04-25T01:21:27.268Z,161.04
2024-04-25T01:22:27.327Z,158.41
2024-04-25T01:23:27.423Z,160.48
2024-04-25T01:24:27.457Z,160.66
2024-04-25T01:25:27.494Z,159.87
2024-04-25T01:26:27.565Z,160.20
2024-04-25T01:27:27.590Z,161.61
2024-04-25T01:28:27.647Z,163.21
2024-04-25T01:29:27.745Z,161.30
2024-04-25T01:30:27.760Z,161.32
2024-04-25T01:31:27.819Z,160.75
2024-04-25T01:32:27.969Z,161.15
2024-04-25T01:33:27.998Z,160.49
2024-04-25T01:34:27.900Z,160.57
2024-04-25T01:35:27.983Z,160.69
2024-04-25T01:36:27.913Z,161.02
2024-04-25T01:37:27.937Z,161.07
2024-04-25T01:38:27.916Z,161.91
2024-04-25T01:39:27.918Z,162.40
2024-04-25T01:40:27.936Z,160.68
2024-04-25T01:41:27.946Z,162.80
2024-04-25T01:42:27.912Z,161.70
2024-04-25T01:43:27.981Z,161.38
2024-04-25T01:44:28.044Z,161.07
2024-04-25T01:45:28.086Z,161.75
2024-04-25T01:46:28.147Z,162.64
2024-04-25T01:47:28.380Z,159.91
2024-04-25T01:48:28.398Z,158.63
2024-04-25T01:49:28.315Z,159.26
2024-04-25T01:50:28.569Z,160.86
2024-04-25T01:51:28.443Z,160.80
2024-04-25T01:52:28.464Z,161.04
2024-04-25T01:53:28.555Z,160.25
2024-04-25T01:54:28.569Z,162.05
2024-04-25T01:55:28.647Z,161.22
2024-04-25T01:56:28.733Z,160.45
2024-04-25T01:57:28.780Z,159.83
2024-04-25T01:58:28.849Z,159.51
2024-04-25T01:59:28.924Z,160.84
2024-04-25T02:00:28.957Z,160.87
2024-04-25T02:01:29.018Z,159.72
2024-04-25T02:02:29.121Z,161.62
2024-04-25T02:03:29.126Z,160.31
2024-04-25T02:04:29.169Z,160.61
2024-04-25T02:05:29.274Z,160.79
2024-04-25T02:06:29.266Z,161.39
2024-04-25T02:07:29.334Z,160.73
2024-04-25T02:08:29.427Z,161.05
2024-04-25T02:09:29.435Z,160.08
2024-04-25T02:10:29.517Z,159.83
2024-04-25T02:11:29.648Z,160.53
2024-04-25T02:12:29.602Z,160.73
2024-04-25T02:13:29.603Z,160.77
2024-04-25T02:14:29.624Z,160.77
2024-04-25T02:15:29.620Z,160.99
2024-04-25T02:16:29.604Z,160.45
2024-04-25T02:17:29.691Z,160.99
2024-04-25T02:18:29.702Z,160.45
2024-04-25T02:19:29.609Z,159.56
2024-04-25T02:20:29.667Z,161.47
2024-04-25T02:21:29.635Z,161.58
2024-04-25T02:22:29.715Z,160.12
2024-04-25T02:23:29.779Z,160.12
2024-04-25T02:24:29.815Z,158.76
2024-04-25T02:25:29.866Z,160.93
2024-04-25T02:26:29.953Z,157.48
2024-04-25T02:27:29.965Z,160.52
2024-04-25T02:28:30.012Z,158.56
2024-04-25T02:29:30.134Z,159.57
2024-04-25T02:30:30.108Z,161.24
2024-04-25T02:31:30.155Z,160.55
2024-04-25T02:32:30.296Z,160.19
2024-04-25T02:33:30.265Z,160.43
2024-04-25T02:34:30.314Z,159.16
2024-04-25T02:35:30.397Z,160.09
2024-04-25T02:36:30.445Z,159.35
2024-04-25T02:37:30.495Z,159.84
2024-04-25T02:38:30.546Z,159.36
2024-04-25T02:39:30.599Z,159.66
2024-04-25T02:40:30.668Z,159.42
2024-04-25T02:41:30.748Z,161.07
2024-04-25T02:42:30.794Z,157.65
2024-04-25T02:43:30.868Z,159.84
2024-04-25T02:44:30.955Z,159.67
2024-04-25T02:45:30.984Z,158.84
2024-04-25T02:46:31.040Z,159.21
2024-04-25T02:47:31.162Z,160.49
2024-04-25T02:48:31.242Z,158.90
2024-04-25T02:49:31.239Z,160.50
2024-04-25T02:50:31.306Z,158.47
2024-04-25T02:51:31.371Z,161.22
2024-04-25T02:52:31.413Z,159.75
2024-04-25T02:53:31.547Z,160.90
2024-04-25T02:54:31.558Z,159.89
2024-04-25T02:55:31.603Z,158.54
2024-04-25T02:56:31.678Z,158.69
2024-04-25T02:57:31.608Z,159.09
2024-04-25T02:58:31.612Z,159.58
2024-04-25T02:59:31.631Z,159.58
2024-04-25T03:00:31.622Z,159.99
2024-04-25T03:01:31.622Z,160.55
2024-04-25T03:02:31.705Z,159.96
2024-04-25T03:03:31.755Z,158.68
2024-04-25T03:04:31.686Z,159.00
2024-04-25T03:05:31.740Z,159.84
2024-04-25T03:06:31.818Z,160.76
2024-04-25T03:07:31.853Z,159.71
2024-04-25T03:08:31.945Z,159.02
2024-04-25T03:09:32.002Z,159.91
2024-04-25T03:10:32.042Z,159.67
2024-04-25T03:11:32.207Z,159.38
2024-04-25T03:12:32.179Z,159.61
2024-04-25T03:13:32.230Z,158.26
2024-04-25T03:14:32.369Z,161.23
2024-04-25T03:15:32.370Z,158.93
2024-04-25T03:16:32.433Z,161.49
2024-04-25T03:17:32.625Z,159.12
2024-04-25T03:18:32.620Z,160.10
2024-04-25T03:19:32.610Z,157.19
2024-04-25T03:20:32.709Z,159.62
2024-04-25T03:21:32.718Z,159.64
2024-04-25T03:22:32.757Z,160.07
2024-04-25T03:23:32.833Z,158.02
2024-04-25T03:24:32.880Z,159.46
2024-04-25T03:25:32.886Z,159.48
2024-04-25T03:26:32.912Z,159.33
2024-04-25T03:27:32.866Z,159.55
2024-04-25T03:28:32.886Z,159.64
2024-04-25T03:29:32.955Z,161.60
2024-04-25T03:30:32.893Z,165.95
2024-04-25T03:31:32.868Z,164.07
2024-04-25T03:32:32.950Z,162.51
2024-04-25T03:33:33.060Z,156.81
2024-04-25T03:34:32.968Z,153.47
2024-04-25T03:35:33.087Z,147.91
2024-04-25T03:36:33.036Z,140.89
2024-04-25T03:37:33.012Z,135.77
2024-04-25T03:38:33.079Z,130.43
2024-04-25T03:39:33.029Z,124.93
2024-04-25T03:40:33.063Z,118.98
2024-04-25T03:41:33.112Z,114.30
2024-04-25T03:42:33.082Z,108.71
2024-04-25T03:43:33.086Z,103.63
2024-04-25T03:44:33.105Z,97.80
2024-04-25T03:45:33.132Z,95.01
2024-04-25T03:46:33.143Z,90.27
2024-04-25T03:47:33.305Z,87.35
2024-04-25T03:48:33.314Z,82.88
2024-04-25T03:49:33.226Z,79.00
2024-04-25T03:50:33.281Z,75.43
2024-04-25T03:51:33.295Z,72.38
2024-04-25T03:52:33.310Z,67.85
2024-04-25T03:53:33.386Z,64.76
2024-04-25T03:54:33.367Z,61.03
2024-04-25T03:55:33.399Z,59.95
2024-04-25T03:56:33.482Z,56.61
2024-04-25T03:57:33.462Z,53.32
2024-04-25T03:58:33.507Z,52.04
2024-04-25T03:59:33.539Z,50.52
2024-04-25T04:00:33.548Z,50.00
2024-04-25T04:01:33.576Z,50.00
2024-04-25T04:02:33.695Z,50.67
2024-04-25T04:03:33.638Z,50.37
2024-04-25T04:04:33.651Z,49.65
2024-04-25T04:05:33.710Z,50.00
2024-04-25T04:06:33.682Z,51.01
2024-04-25T04:07:33.691Z,50.63
2024-04-25T04:08:33.737Z,50.24
2024-04-25T04:09:33.735Z,50.00
2024-04-25T04:10:33.762Z,50.00
2024-04-25T04:11:33.834Z,49.83
2024-04-25T04:12:33.794Z,50.70
2024-04-25T04:13:33.799Z,50.14
2024-04-25T04:14:33.913Z,50.31
2024-04-25T04:15:33.872Z,50.31
2024-04-25T04:16:33.946Z,50.51
2024-04-25T04:17:33.974Z,50.18
2024-04-25T04:18:33.957Z,50.90
2024-04-25T04:19:33.976Z,50.00
2024-04-25T04:20:34.074Z,50.14
2024-04-25T04:21:34.058Z,50.44
2024-04-25T04:22:34.072Z,50.00
2024-04-25T04:23:41.355Z,50.00
2024-04-25T04:24:41.270Z,50.00
2024-04-25T04:25:41.288Z,50.00
2024-04-25T04:26:41.369Z,50.00
2024-04-25T04:27:41.267Z,50.00
2024-04-25T04:28:41.267Z,50.84
2024-04-25T04:29:41.343Z,50.00
2024-04-25T04:30:41.285Z,51.04
2024-04-25T04:31:53.366Z,50.00
2024-04-25T04:32:53.467Z,50.00
2024-04-25T04:33:53.551Z,50.00
2024-04-25T04:34:53.375Z,50.00
2024-04-25T04:35:53.368Z,50.00
2024-04-25T04:36:53.372Z,50.00
2024-04-25T04:37:53.366Z,50.06
2024-04-25T04:38:53.375Z,51.45
2024-04-25T04:39:53.382Z,52.66
2024-04-25T04:40:53.379Z,51.32
2024-04-25T04:41:53.366Z,50.76
2024-04-25T04:42:53.359Z,50.01
2024-04-25T04:43:53.369Z,50.61
2024-04-25T04:44:53.378Z,51.99
2024-04-25T04:45:53.392Z,51.27
2024-04-25T04:46:53.421Z,52.01
2024-04-25T04:47:53.414Z,49.62
2024-04-25T04:48:53.496Z,51.38
2024-04-25T04:49:53.403Z,50.91
2024-04-25T04:50:53.410Z,51.41
2024-04-25T04:51:53.400Z,50.34
2024-04-25T04:52:53.412Z,52.45
2024-04-25T04:53:53.396Z,51.88
2024-04-25T04:54:53.398Z,52.25
2024-04-25T04:55:53.405Z,52.54
2024-04-25T04:56:53.395Z,51.02
2024-04-25T04:57:53.430Z,51.41
2024-04-25T04:58:53.404Z,51.87
2024-04-25T04:59:53.415Z,54.10
2024-04-25T05:00:53.439Z,54.12
2024-04-25T05:01:53.403Z,54.50
2024-04-25T05:02:53.458Z,55.03
2024-04-25T05:03:53.447Z,55.51
2024-04-25T05:04:53.413Z,57.07
2024-04-25T05:05:53.411Z,58.15
2024-04-25T05:06:53.419Z,57.95
2024-04-25T05:07:53.442Z,57.95
2024-04-25T05:08:53.417Z,59.87
2024-04-25T05:09:53.436Z,61.09
2024-04-25T05:10:53.425Z,62.70
2024-04-25T05:11:53.466Z,63.21
2024-04-25T05:12:53.407Z,64.65
2024-04-25T05:13:53.481Z,67.53
2024-04-25T05:14:53.483Z,68.43
2024-04-25T05:15:53.577Z,71.12
2024-04-25T05:16:53.543Z,71.82
2024-04-25T05:17:53.616Z,74.48
2024-04-25T05:18:53.620Z,75.41
2024-04-25T05:19:53.666Z,75.83
2024-04-25T05:20:53.695Z,76.03
2024-04-25T05:21:53.724Z,79.90
2024-04-25T05:22:53.769Z,79.79
2024-04-25T05:23:53.813Z,79.08
2024-04-25T05:24:53.810Z,80.29
2024-04-25T05:25:53.851Z,78.59
2024-04-25T05:26:53.891Z,80.88
2024-04-25T05:27:53.924Z,79.60
2024-04-25T05:28:53.967Z,79.17
2024-04-25T05:29:54.035Z,79.39
2024-04-25T05:30:54.035Z,79.80
2024-04-25T05:31:54.062Z,77.05
2024-04-25T05:32:54.201Z,79.27
2024-04-25T05:33:54.243Z,78.39
2024-04-25T05:34:54.158Z,71.22
2024-04-25T05:35:54.171Z,65.43
2024-04-25T05:36:54.144Z,67.14
2024-04-25T05:37:54.141Z,67.64
2024-04-25T05:38:54.189Z,71.19
2024-04-25T05:39:54.149Z,73.00
2024-04-25T05:40:54.153Z,75.61
2024-04-25T05:41:54.168Z,75.74
2024-04-25T05:42:54.147Z,76.36
2024-04-25T05:43:54.164Z,78.62
2024-04-25T05:44:54.163Z,84.15
2024-04-25T05:45:54.166Z,76.32
2024-04-25T05:46:54.160Z,78.82
2024-04-25T05:47:54.325Z,83.43
2024-04-25T05:48:54.233Z,91.63
2024-04-25T05:49:54.158Z,102.72
2024-04-25T05:50:54.233Z,103.34
2024-04-25T05:51:54.167Z,105.19
2024-04-25T05:52:54.179Z,108.27
2024-04-25T05:53:54.185Z,110.42
2024-04-25T05:54:54.156Z,115.45
2024-04-25T05:55:54.180Z,118.63
2024-04-25T05:56:54.169Z,122.18
2024-04-25T05:57:54.173Z,123.88
2024-04-25T05:58:54.168Z,126.50
2024-04-25T05:59:54.185Z,129.60
2024-04-25T06:00:54.199Z,131.52
2024-04-25T06:01:54.180Z,131.63
2024-04-25T06:02:54.350Z,132.09
2024-04-25T06:03:54.338Z,133.64
2024-04-25T06:04:54.194Z,134.95
2024-04-25T06:05:54.255Z,131.86
2024-04-25T06:06:54.197Z,133.25
2024-04-25T06:07:54.202Z,131.98
2024-04-25T06:08:54.242Z,133.89
2024-04-25T06:09:54.266Z,137.89
2024-04-25T06:10:54.359Z,132.12
2024-04-25T06:11:54.310Z,134.54
2024-04-25T06:12:54.317Z,139.27
2024-04-25T06:13:54.215Z,146.87
2024-04-25T06:14:54.204Z,157.62
2024-04-25T06:15:54.246Z,157.83
2024-04-25T06:16:54.272Z,159.13
2024-04-25T06:17:54.322Z,161.13
2024-04-25T06:18:54.242Z,160.70
2024-04-25T06:19:54.323Z,161.82
2024-04-25T06:20:54.423Z,163.72
2024-04-25T06:21:54.422Z,164.11
2024-04-25T06:22:54.473Z,164.23
2024-04-25T06:23:55.791Z,167.35
2024-04-25T06:24:54.572Z,167.04
2024-04-25T06:25:54.645Z,166.97
2024-04-25T06:26:54.709Z,167.67
2024-04-25T06:27:54.790Z,167.13
2024-04-25T06:28:54.847Z,166.91
2024-04-25T06:29:54.897Z,168.91
2024-04-25T06:30:54.986Z,168.30
2024-04-25T06:31:55.091Z,168.38
2024-04-25T06:32:55.435Z,169.03
2024-04-25T06:33:55.129Z,169.11
2024-04-25T06:34:55.101Z,169.43
2024-04-25T06:35:55.166Z,169.24
2024-04-25T06:36:55.143Z,170.44
2024-04-25T06:37:55.109Z,171.84
2024-04-25T06:38:55.126Z,173.30
2024-04-25T06:39:55.118Z,177.12
2024-04-25T06:40:55.172Z,170.26
2024-04-25T06:41:58.871Z,168.80
2024-04-25T06:42:55.118Z,162.88
2024-04-25T06:43:58.276Z,156.68
2024-04-25T06:44:55.170Z,153.27
2024-04-25T06:45:55.132Z,152.51
2024-04-25T06:46:55.123Z,152.92
2024-04-25T06:47:55.261Z,153.23
2024-04-25T06:48:55.398Z,153.58
2024-04-25T06:49:55.127Z,158.14
2024-04-25T06:50:55.163Z,153.41
2024-04-25T06:51:55.157Z,153.53
2024-04-25T06:52:55.132Z,151.51
2024-04-25T06:53:55.136Z,156.20
2024-04-25T06:54:55.145Z,156.31
2024-04-25T06:55:55.208Z,156.82
2024-04-25T06:56:55.158Z,155.59
2024-04-25T06:57:55.139Z,157.79
2024-04-25T06:58:55.169Z,156.25
2024-04-25T06:59:55.250Z,156.63
2024-04-25T07:00:55.211Z,155.93
2024-04-25T07:01:55.189Z,158.39
2024-04-25T07:02:55.284Z,157.66
2024-04-25T07:03:55.249Z,158.58
2024-04-25T07:04:57.829Z,161.62
2024-04-25T07:05:55.208Z,158.90
2024-04-25T07:06:55.180Z,160.64
2024-04-25T07:07:55.175Z,157.71
2024-04-25T07:08:55.176Z,160.54
2024-04-25T07:09:55.180Z,158.59
2024-04-25T07:10:55.200Z,157.96
2024-04-25T07:11:55.256Z,158.82
2024-04-25T07:12:55.190Z,157.35
2024-04-25T07:13:55.196Z,157.52
2024-04-25T07:14:55.224Z,155.39
2024-04-25T07:15:55.194Z,157.48
2024-04-25T07:16:55.203Z,156.40
2024-04-25T07:17:55.390Z,153.39
2024-04-25T07:18:55.294Z,156.71
2024-04-25T07:19:55.214Z,156.54
2024-04-25T07:20:55.192Z,155.43
2024-04-25T07:21:55.205Z,158.05
2024-04-25T07:22:55.217Z,152.94
2024-04-25T07:23:55.206Z,155.67
2024-04-25T07:24:55.215Z,151.72
2024-04-25T07:25:55.203Z,149.99
2024-04-25T07:26:55.200Z,145.21
2024-04-25T07:27:55.197Z,142.65
2024-04-25T07:28:55.201Z,137.51
2024-04-25T07:29:55.250Z,132.89
2024-04-25T07:30:55.216Z,125.56
2024-04-25T07:31:55.281Z,120.35
2024-04-25T07:32:55.323Z,112.49
2024-04-25T07:33:55.339Z,105.40
2024-04-25T07:34:55.223Z,97.99
2024-04-25T07:35:55.308Z,91.77
2024-04-25T07:36:55.215Z,84.96
2024-04-25T07:37:55.257Z,77.15
2024-04-25T07:38:55.308Z,71.57
2024-04-25T07:39:55.217Z,68.58
2024-04-25T07:40:55.244Z,64.63
2024-04-25T07:41:55.258Z,62.86
2024-04-25T07:42:55.255Z,61.44
2024-04-25T07:43:55.314Z,60.18
2024-04-25T07:44:55.223Z,61.17
2024-04-25T07:45:55.217Z,61.66
2024-04-25T07:46:55.231Z,63.19
2024-04-25T07:47:55.425Z,64.61
2024-04-25T07:48:55.330Z,68.73
2024-04-25T07:49:55.233Z,72.02
2024-04-25T07:50:55.236Z,74.53
2024-04-25T07:51:55.285Z,78.74
2024-04-25T07:52:55.325Z,80.64
2024-04-25T07:53:55.351Z,80.80
2024-04-25T07:54:55.319Z,81.46
2024-04-25T07:55:55.322Z,83.07
2024-04-25T07:56:55.345Z,86.72
2024-04-25T07:57:55.324Z,81.04
2024-04-25T07:58:55.328Z,83.01
2024-04-25T07:59:55.342Z,87.32
2024-04-25T08:00:55.370Z,93.20
2024-04-25T08:01:55.343Z,101.16
2024-04-25T08:02:55.418Z,106.52
2024-04-25T08:03:55.342Z,107.59
2024-04-25T08:04:55.424Z,110.97
2024-04-25T08:05:55.452Z,110.69
2024-04-25T08:06:55.462Z,112.79
2024-04-25T08:07:55.538Z,116.35
2024-04-25T08:08:55.601Z,117.99
2024-04-25T08:09:55.657Z,118.94
2024-04-25T08:10:55.784Z,123.35
2024-04-25T08:11:55.828Z,124.29
2024-04-25T08:12:55.814Z,127.36
2024-04-25T08:13:58.732Z,127.80
2024-04-25T08:14:55.910Z,127.85
2024-04-25T08:15:56.008Z,128.38
2024-04-25T08:16:55.876Z,129.69
2024-04-25T08:17:55.964Z,131.06
2024-04-25T08:18:55.904Z,134.36
2024-04-25T08:19:55.875Z,134.93
2024-04-25T08:20:55.965Z,131.66
2024-04-25T08:21:56.061Z,130.92
2024-04-25T08:22:55.878Z,131.71
2024-04-25T08:23:55.886Z,133.70
2024-04-25T08:24:55.874Z,132.15
2024-04-25T08:25:55.913Z,126.41
2024-04-25T08:26:55.946Z,126.61
2024-04-25T08:27:55.883Z,128.55
2024-04-25T08:28:55.891Z,121.58
2024-04-25T08:29:55.874Z,122.07
2024-04-25T08:30:55.894Z,120.74
2024-04-25T08:31:55.916Z,120.12
2024-04-25T08:32:56.292Z,116.03
2024-04-25T08:33:56.175Z,118.83
2024-04-25T08:34:55.887Z,116.89
2024-04-25T08:35:55.905Z,116.62
2024-04-25T08:36:55.885Z,106.72
2024-04-25T08:37:55.922Z,108.72
2024-04-25T08:38:55.996Z,107.17
2024-04-25T08:39:56.120Z,108.84
2024-04-25T08:40:56.072Z,109.24
2024-04-25T08:41:56.145Z,110.61
2024-04-25T08:42:56.191Z,107.56
2024-04-25T08:43:56.240Z,108.95
2024-04-25T08:44:56.309Z,106.61
2024-04-25T08:45:56.369Z,101.57
2024-04-25T08:46:56.476Z,102.93
2024-04-25T08:47:56.591Z,98.81
2024-04-25T08:48:56.538Z,98.17
2024-04-25T08:49:56.603Z,97.55
2024-04-25T08:50:56.724Z,93.68
2024-04-25T08:51:56.733Z,92.65
2024-04-25T08:52:56.758Z,92.83
2024-04-25T08:53:56.831Z,89.54
2024-04-25T08:54:56.876Z,88.00
2024-04-25T08:55:56.932Z,84.26
2024-04-25T08:56:56.993Z,84.42
2024-04-25T08:57:57.039Z,79.86
2024-04-25T08:58:57.116Z,79.58
2024-04-25T08:59:57.151Z,81.67
2024-04-25T09:00:57.264Z,75.28
2024-04-25T09:01:57.260Z,76.63
2024-04-25T09:02:57.379Z,74.56
2024-04-25T09:03:57.401Z,73.29
2024-04-25T09:04:57.435Z,71.25
2024-04-25T09:05:57.475Z,69.41
2024-04-25T09:06:57.558Z,69.21
2024-04-25T09:07:57.612Z,70.83
2024-04-25T09:08:57.704Z,67.52
2024-04-25T09:09:57.759Z,68.20
2024-04-25T09:10:57.785Z,69.52
2024-04-25T09:11:57.986Z,68.75
2024-04-25T09:12:57.901Z,74.92
2024-04-25T09:13:57.919Z,70.38
2024-04-25T09:14:57.904Z,69.71
2024-04-25T09:15:57.911Z,67.07
2024-04-25T09:16:57.959Z,66.34
2024-04-25T09:17:58.001Z,69.02
2024-04-25T09:18:57.922Z,72.16
2024-04-25T09:19:57.929Z,69.86
2024-04-25T09:20:57.951Z,67.33
2024-04-25T09:21:57.940Z,67.10
2024-04-25T09:22:58.726Z,63.49
2024-04-25T09:23:57.960Z,59.54
2024-04-25T09:24:58.024Z,54.93
2024-04-25T09:25:58.074Z,51.19
2024-04-25T09:26:58.172Z,50.84
2024-04-25T09:27:58.213Z,50.36
2024-04-25T09:28:58.289Z,52.04
2024-04-25T09:29:58.352Z,51.04
2024-04-25T09:30:58.418Z,50.07
2024-04-25T09:31:58.501Z,50.17
2024-04-25T09:32:58.676Z,49.66
2024-04-25T09:33:58.684Z,50.72
2024-04-25T09:35:02.351Z,50.71
2024-04-25T09:35:59.708Z,50.79
2024-04-25T09:36:58.707Z,50.86
2024-04-25T09:37:58.685Z,51.47
2024-04-25T09:38:58.700Z,52.36
2024-04-25T09:40:03.695Z,59.73
2024-04-25T09:40:59.715Z,51.18
2024-04-25T09:41:58.689Z,53.72
2024-04-25T09:42:58.694Z,59.72
2024-04-25T09:43:58.704Z,70.34
2024-04-25T09:44:58.753Z,87.54
2024-04-25T09:45:58.748Z,93.77
2024-04-25T09:47:01.903Z,97.04
2024-04-25T09:47:58.807Z,97.29
2024-04-25T09:48:58.693Z,98.60
2024-04-25T09:49:58.705Z,103.05
2024-04-25T09:50:58.763Z,109.40
2024-04-25T09:51:58.708Z,124.92
2024-04-25T09:53:00.632Z,98.23
2024-04-25T09:53:58.732Z,98.38
2024-04-25T09:54:58.705Z,103.61
2024-04-25T09:55:58.709Z,112.87
2024-04-25T09:56:58.722Z,130.48
2024-04-25T09:57:58.722Z,155.63
2024-04-25T09:58:58.721Z,161.63
2024-04-25T09:59:58.758Z,164.15
2024-04-25T10:00:58.728Z,170.77
2024-04-25T10:01:58.759Z,176.79
2024-04-25T10:02:58.785Z,178.97
2024-04-25T10:03:58.774Z,179.53
2024-04-25T10:04:58.753Z,185.45
2024-04-25T10:05:58.740Z,184.86
2024-04-25T10:06:58.731Z,187.78
2024-04-25T10:07:58.718Z,188.85
2024-04-25T10:08:58.884Z,195.23
2024-04-25T10:09:58.735Z,195.03
2024-04-25T10:11:03.089Z,195.19
2024-04-25T10:11:59.916Z,195.33
2024-04-25T10:12:58.738Z,196.66
2024-04-25T10:13:58.732Z,199.98
2024-04-25T10:14:58.736Z,204.48
2024-04-25T10:15:58.735Z,210.27
2024-04-25T10:17:01.667Z,197.35
2024-04-25T10:17:58.815Z,197.41
2024-04-25T10:18:58.858Z,198.04
2024-04-25T10:19:58.764Z,199.77
2024-04-25T10:20:58.761Z,202.35
2024-04-25T10:21:58.755Z,206.73
2024-04-25T10:22:58.754Z,199.27
2024-04-25T10:23:58.767Z,200.00
2024-04-25T10:24:58.773Z,198.45
2024-04-25T10:25:58.763Z,199.61
2024-04-25T10:26:58.816Z,197.96
2024-04-25T10:27:58.760Z,199.07
2024-04-25T10:29:00.324Z,197.50
2024-04-25T10:29:58.992Z,198.66
2024-04-25T10:30:59.032Z,198.70
2024-04-25T10:31:59.073Z,198.77
2024-04-25T10:32:59.172Z,199.20
2024-04-25T10:33:59.068Z,198.82
2024-04-25T10:34:59.068Z,199.51
2024-04-25T10:35:59.108Z,201.21
2024-04-25T10:36:59.044Z,202.73
2024-04-25T10:37:59.046Z,203.94
2024-04-25T10:39:05.382Z,199.52
2024-04-25T10:40:00.062Z,199.52
2024-04-25T10:40:59.074Z,199.75
2024-04-25T10:41:59.103Z,200.08
2024-04-25T10:43:01.399Z,200.45
2024-04-25T10:44:00.070Z,199.59
2024-04-25T10:44:59.099Z,199.75
2024-04-25T10:45:59.076Z,200.48
2024-04-25T10:46:59.092Z,200.27
2024-04-25T10:47:59.185Z,202.69
2024-04-25T10:49:02.467Z,198.94
2024-04-25T10:49:59.101Z,199.03
2024-04-25T10:50:59.096Z,199.25
2024-04-25T10:51:59.096Z,199.69
2024-04-25T10:52:59.083Z,200.88
2024-04-25T10:53:59.079Z,200.57
2024-04-25T10:54:59.089Z,198.83
2024-04-25T10:55:59.073Z,199.59
2024-04-25T10:56:59.096Z,198.53
2024-04-25T10:57:59.148Z,197.75
2024-04-25T10:58:59.208Z,199.46
2024-04-25T10:59:59.276Z,198.59
2024-04-25T11:00:59.330Z,198.71
2024-04-25T11:01:59.421Z,199.38
2024-04-25T11:02:59.545Z,199.13
2024-04-25T11:03:59.564Z,198.27
2024-04-25T11:04:59.574Z,198.51
2024-04-25T11:05:59.653Z,198.43
2024-04-25T11:06:59.708Z,196.23
2024-04-25T11:07:59.794Z,197.41
2024-04-25T11:08:59.841Z,197.14
2024-04-25T11:09:59.915Z,198.18
2024-04-25T11:11:00.009Z,199.16
2024-04-25T11:12:00.102Z,196.37
2024-04-25T11:13:00.132Z,197.54
2024-04-25T11:14:00.232Z,196.11
2024-04-25T11:15:00.286Z,195.87
2024-04-25T11:16:00.355Z,196.30
2024-04-25T11:17:00.437Z,193.82
2024-04-25T11:18:06.748Z,192.05
2024-04-25T11:19:07.571Z,192.09
2024-04-25T11:20:02.658Z,192.06
2024-04-25T11:21:00.765Z,190.05
2024-04-25T11:22:00.805Z,190.52
2024-04-25T11:23:00.759Z,188.47
2024-04-25T11:24:00.872Z,188.07
2024-04-25T11:25:00.758Z,184.02
2024-04-25T11:26:00.821Z,184.75
2024-04-25T11:27:00.870Z,182.25
2024-04-25T11:28:00.896Z,182.27
2024-04-25T11:29:00.892Z,180.20
2024-04-25T11:30:00.919Z,180.64
2024-04-25T11:31:03.053Z,181.05
2024-04-25T11:32:00.910Z,179.91
2024-04-25T11:33:00.998Z,179.39
2024-04-25T11:34:00.945Z,182.03
2024-04-25T11:35:00.887Z,180.68
2024-04-25T11:36:00.969Z,182.06
2024-04-25T11:37:00.901Z,183.71
2024-04-25T11:38:00.908Z,184.14
2024-04-25T11:39:00.912Z,184.32
2024-04-25T11:40:00.918Z,186.49
2024-04-25T11:41:00.935Z,183.27
2024-04-25T11:42:00.914Z,186.25
2024-04-25T11:43:00.931Z,187.11
2024-04-25T11:44:01.027Z,185.70
2024-04-25T11:45:00.907Z,183.70
2024-04-25T11:46:00.924Z,188.17
2024-04-25T11:47:00.934Z,186.92
2024-04-25T11:48:01.164Z,188.13
2024-04-25T11:49:00.981Z,186.48
2024-04-25T11:50:00.918Z,186.35
2024-04-25T11:51:04.486Z,185.92
2024-04-25T11:52:00.962Z,185.98
2024-04-25T11:53:00.922Z,186.04
2024-04-25T11:54:00.921Z,186.28
2024-04-25T11:55:00.926Z,186.24
2024-04-25T11:56:00.958Z,186.27
2024-04-25T11:57:01.016Z,184.29
2024-04-25T11:58:00.953Z,187.31
2024-04-25T11:59:00.931Z,185.10
2024-04-25T12:00:00.944Z,184.82
2024-04-25T12:01:00.930Z,185.11
2024-04-25T12:02:00.943Z,184.95
2024-04-25T12:03:01.009Z,185.51
2024-04-25T12:04:00.985Z,186.66
2024-04-25T12:05:00.972Z,184.66
2024-04-25T12:06:00.999Z,183.11
2024-04-25T12:07:00.946Z,183.89
2024-04-25T12:08:00.940Z,181.85
2024-04-25T12:09:00.942Z,183.00
2024-04-25T12:10:00.944Z,181.70
2024-04-25T12:11:00.964Z,182.99
2024-04-25T12:12:01.076Z,182.59
2024-04-25T12:13:01.019Z,182.73
2024-04-25T12:14:00.952Z,184.15
2024-04-25T12:15:00.950Z,182.86
2024-04-25T12:16:00.990Z,183.49
2024-04-25T12:17:00.969Z,184.03
2024-04-25T12:18:01.068Z,183.31
2024-04-25T12:19:01.003Z,184.44
2024-04-25T12:20:00.969Z,183.12
2024-04-25T12:21:01.020Z,185.22
2024-04-25T12:22:00.976Z,184.66
2024-04-25T12:23:00.985Z,183.03
2024-04-25T12:24:01.030Z,183.50
2024-04-25T12:25:01.012Z,183.43
2024-04-25T12:26:00.977Z,183.64
2024-04-25T12:27:00.982Z,183.14
2024-04-25T12:28:00.976Z,181.77
2024-04-25T12:29:00.996Z,181.82
2024-04-25T12:30:00.980Z,182.57
2024-04-25T12:31:00.977Z,183.01
2024-04-25T12:32:00.985Z,182.45
2024-04-25T12:33:01.164Z,182.91
2024-04-25T12:34:01.188Z,183.98
2024-04-25T12:35:01.026Z,183.18
2024-04-25T12:36:01.034Z,183.50